sensor_id;sensor_type;location;lat;lon;timestamp;P1;durP1;ratioP1;P2;durP2;ratioP2
40939;SDS011;26666;50.156;7.700;2023-03-23T00:02:55;0.10;;;0.10;;
40939;SDS011;26666;50.156;7.700;2023-03-23T00:07:55;0.10;;;0.10;;
40939;SDS011;26666;50.156;7.700;2023-03-23T00:12:56;0.00;;;0.00;;
40939;SDS011;26666;50.156;7.700;2023-03-23T00:17:58;5.25;;;0.20;;
40939;SDS011;26666;50.156;7.700;2023-03-23T00:22:58;2.70;;;0.10;;
40939;SDS011;26666;50.156;7.700;2023-03-23T00:27:59;0.88;;;0.10;;
40939;SDS011;26666;50.156;7.700;2023-03-23T00:33:01;1.90;;;0.05;;
40939;SDS011;26666;50.156;7.700;2023-03-23T00:38:02;0.65;;;0.20;;
40939;SDS011;26666;50.156;7.700;2023-03-23T00:43:03;0.10;;;0.10;;
40939;SDS011;26666;50.156;7.700;2023-03-23T00:48:05;0.10;;;0.10;;
40939;SDS011;26666;50.156;7.700;2023-03-23T00:53:06;5.25;;;0.10;;
40939;SDS011;26666;50.156;7.700;2023-03-23T00:58:06;1.65;;;0.00;;
40939;SDS011;26666;50.156;7.700;2023-03-23T01:03:08;3.00;;;0.10;;
40939;SDS011;26666;50.156;7.700;2023-03-23T01:08:10;0.10;;;0.00;;
40939;SDS011;26666;50.156;7.700;2023-03-23T01:13:10;0.13;;;0.00;;
40939;SDS011;26666;50.156;7.700;2023-03-23T01:18:13;0.85;;;0.20;;
40939;SDS011;26666;50.156;7.700;2023-03-23T01:23:13;0.00;;;0.00;;
40939;SDS011;26666;50.156;7.700;2023-03-23T01:28:14;6.72;;;0.10;;
40939;SDS011;26666;50.156;7.700;2023-03-23T01:33:16;3.70;;;0.10;;
40939;SDS011;26666;50.156;7.700;2023-03-23T01:38:17;1.23;;;0.10;;
40939;SDS011;26666;50.156;7.700;2023-03-23T01:43:17;1.95;;;0.10;;
40939;SDS011;26666;50.156;7.700;2023-03-23T01:48:20;2.53;;;0.10;;
40939;SDS011;26666;50.156;7.700;2023-03-23T01:53:25;0.00;;;0.00;;
40939;SDS011;26666;50.156;7.700;2023-03-23T01:58:30;0.57;;;0.35;;
40939;SDS011;26666;50.156;7.700;2023-03-23T02:03:34;0.85;;;0.08;;
40939;SDS011;26666;50.156;7.700;2023-03-23T02:08:36;0.08;;;0.00;;
40939;SDS011;26666;50.156;7.700;2023-03-23T02:13:38;0.30;;;0.00;;
40939;SDS011;26666;50.156;7.700;2023-03-23T02:18:43;0.00;;;0.00;;
40939;SDS011;26666;50.156;7.700;2023-03-23T02:29:47;0.22;;;0.13;;
40939;SDS011;26666;50.156;7.700;2023-03-23T02:34:57;0.35;;;0.10;;
40939;SDS011;26666;50.156;7.700;2023-03-23T02:40:02;0.43;;;0.20;;
40939;SDS011;26666;50.156;7.700;2023-03-23T02:45:07;0.57;;;0.10;;
40939;SDS011;26666;50.156;7.700;2023-03-23T02:50:12;0.75;;;0.10;;
40939;SDS011;26666;50.156;7.700;2023-03-23T02:55:16;0.43;;;0.10;;
40939;SDS011;26666;50.156;7.700;2023-03-23T03:00:18;0.47;;;0.00;;
40939;SDS011;26666;50.156;7.700;2023-03-23T03:05:26;7.88;;;0.47;;
40939;SDS011;26666;50.156;7.700;2023-03-23T03:10:37;3.60;;;0.35;;
40939;SDS011;26666;50.156;7.700;2023-03-23T03:15:48;0.20;;;0.00;;
40939;SDS011;26666;50.156;7.700;2023-03-23T03:20:58;0.73;;;0.10;;
40939;SDS011;26666;50.156;7.700;2023-03-23T03:26:03;0.28;;;0.10;;
40939;SDS011;26666;50.156;7.700;2023-03-23T03:31:06;0.05;;;0.03;;
40939;SDS011;26666;50.156;7.700;2023-03-23T03:36:08;0.75;;;0.20;;
40939;SDS011;26666;50.156;7.700;2023-03-23T03:41:16;0.32;;;0.15;;
40939;SDS011;26666;50.156;7.700;2023-03-23T03:46:17;0.28;;;0.10;;
40939;SDS011;26666;50.156;7.700;2023-03-23T03:51:19;0.13;;;0.13;;
40939;SDS011;26666;50.156;7.700;2023-03-23T03:56:20;0.63;;;0.10;;
40939;SDS011;26666;50.156;7.700;2023-03-23T04:01:21;0.15;;;0.10;;
40939;SDS011;26666;50.156;7.700;2023-03-23T04:06:23;0.08;;;0.08;;
40939;SDS011;26666;50.156;7.700;2023-03-23T04:11:24;0.52;;;0.10;;
40939;SDS011;26666;50.156;7.700;2023-03-23T04:16:25;0.10;;;0.10;;
40939;SDS011;26666;50.156;7.700;2023-03-23T04:21:27;0.45;;;0.10;;
40939;SDS011;26666;50.156;7.700;2023-03-23T04:26:28;2.75;;;0.17;;
40939;SDS011;26666;50.156;7.700;2023-03-23T04:31:28;2.05;;;0.10;;
40939;SDS011;26666;50.156;7.700;2023-03-23T04:36:30;0.57;;;0.10;;
40939;SDS011;26666;50.156;7.700;2023-03-23T04:41:31;0.52;;;0.30;;
40939;SDS011;26666;50.156;7.700;2023-03-23T04:46:32;0.75;;;0.10;;
40939;SDS011;26666;50.156;7.700;2023-03-23T04:51:34;2.60;;;0.32;;
40939;SDS011;26666;50.156;7.700;2023-03-23T04:56:35;4.43;;;1.10;;
40939;SDS011;26666;50.156;7.700;2023-03-23T05:01:35;0.60;;;0.60;;
40939;SDS011;26666;50.156;7.700;2023-03-23T05:06:37;0.35;;;0.15;;
40939;SDS011;26666;50.156;7.700;2023-03-23T05:11:38;0.10;;;0.10;;
40939;SDS011;26666;50.156;7.700;2023-03-23T05:16:38;0.30;;;0.10;;
40939;SDS011;26666;50.156;7.700;2023-03-23T05:21:40;0.03;;;0.03;;
40939;SDS011;26666;50.156;7.700;2023-03-23T05:26:41;0.35;;;0.30;;
40939;SDS011;26666;50.156;7.700;2023-03-23T05:31:41;1.25;;;0.20;;
40939;SDS011;26666;50.156;7.700;2023-03-23T05:36:43;0.22;;;0.10;;
40939;SDS011;26666;50.156;7.700;2023-03-23T05:41:44;0.50;;;0.00;;
40939;SDS011;26666;50.156;7.700;2023-03-23T05:46:45;0.35;;;0.10;;
40939;SDS011;26666;50.156;7.700;2023-03-23T05:51:47;0.13;;;0.10;;
40939;SDS011;26666;50.156;7.700;2023-03-23T05:56:48;0.28;;;0.10;;
40939;SDS011;26666;50.156;7.700;2023-03-23T06:01:50;0.00;;;0.00;;
40939;SDS011;26666;50.156;7.700;2023-03-23T06:06:52;0.30;;;0.20;;
40939;SDS011;26666;50.156;7.700;2023-03-23T06:11:53;0.20;;;0.10;;
40939;SDS011;26666;50.156;7.700;2023-03-23T06:16:53;0.10;;;0.10;;
40939;SDS011;26666;50.156;7.700;2023-03-23T06:21:55;0.45;;;0.10;;
40939;SDS011;26666;50.156;7.700;2023-03-23T06:26:56;0.25;;;0.00;;
40939;SDS011;26666;50.156;7.700;2023-03-23T06:31:57;0.28;;;0.10;;
40939;SDS011;26666;50.156;7.700;2023-03-23T06:37:01;0.00;;;0.00;;
40939;SDS011;26666;50.156;7.700;2023-03-23T06:42:02;1.20;;;0.05;;
40939;SDS011;26666;50.156;7.700;2023-03-23T06:47:04;0.20;;;0.00;;
40939;SDS011;26666;50.156;7.700;2023-03-23T06:52:16;0.30;;;0.10;;
40939;SDS011;26666;50.156;7.700;2023-03-23T06:57:16;0.10;;;0.10;;
40939;SDS011;26666;50.156;7.700;2023-03-23T07:02:18;2.63;;;0.20;;
40939;SDS011;26666;50.156;7.700;2023-03-23T07:07:20;0.38;;;0.17;;
40939;SDS011;26666;50.156;7.700;2023-03-23T07:12:21;0.55;;;0.10;;
40939;SDS011;26666;50.156;7.700;2023-03-23T07:17:21;4.85;;;0.40;;
40939;SDS011;26666;50.156;7.700;2023-03-23T07:22:24;2.25;;;0.10;;
40939;SDS011;26666;50.156;7.700;2023-03-23T07:27:24;0.73;;;0.50;;
40939;SDS011;26666;50.156;7.700;2023-03-23T07:32:25;1.85;;;0.10;;
40939;SDS011;26666;50.156;7.700;2023-03-23T07:37:27;1.65;;;0.10;;
40939;SDS011;26666;50.156;7.700;2023-03-23T07:42:28;0.93;;;0.20;;
40939;SDS011;26666;50.156;7.700;2023-03-23T07:47:28;1.70;;;0.10;;
40939;SDS011;26666;50.156;7.700;2023-03-23T07:52:30;1.10;;;0.10;;
40939;SDS011;26666;50.156;7.700;2023-03-23T07:57:31;0.25;;;0.00;;
40939;SDS011;26666;50.156;7.700;2023-03-23T08:02:31;0.35;;;0.30;;
40939;SDS011;26666;50.156;7.700;2023-03-23T08:07:33;0.55;;;0.10;;
40939;SDS011;26666;50.156;7.700;2023-03-23T08:12:34;0.50;;;0.10;;
40939;SDS011;26666;50.156;7.700;2023-03-23T08:17:35;0.45;;;0.10;;
40939;SDS011;26666;50.156;7.700;2023-03-23T08:22:37;0.28;;;0.10;;
40939;SDS011;26666;50.156;7.700;2023-03-23T08:27:38;0.85;;;0.20;;
40939;SDS011;26666;50.156;7.700;2023-03-23T08:32:39;0.47;;;0.00;;
40939;SDS011;26666;50.156;7.700;2023-03-23T08:37:42;1.90;;;0.10;;
40939;SDS011;26666;50.156;7.700;2023-03-23T08:42:43;0.10;;;0.10;;
40939;SDS011;26666;50.156;7.700;2023-03-23T08:47:47;0.70;;;0.10;;
40939;SDS011;26666;50.156;7.700;2023-03-23T08:52:49;0.03;;;0.00;;
40939;SDS011;26666;50.156;7.700;2023-03-23T08:57:50;0.00;;;0.00;;
40939;SDS011;26666;50.156;7.700;2023-03-23T09:02:51;0.22;;;0.22;;
40939;SDS011;26666;50.156;7.700;2023-03-23T09:07:55;0.90;;;0.00;;
40939;SDS011;26666;50.156;7.700;2023-03-23T09:12:57;0.08;;;0.00;;
40939;SDS011;26666;50.156;7.700;2023-03-23T09:17:57;0.10;;;0.00;;
40939;SDS011;26666;50.156;7.700;2023-03-23T09:23:00;1.08;;;0.13;;
40939;SDS011;26666;50.156;7.700;2023-03-23T09:28:00;0.03;;;0.03;;
40939;SDS011;26666;50.156;7.700;2023-03-23T09:33:01;1.15;;;0.00;;
40939;SDS011;26666;50.156;7.700;2023-03-23T09:38:05;0.00;;;0.00;;
40939;SDS011;26666;50.156;7.700;2023-03-23T09:43:09;0.45;;;0.28;;
40939;SDS011;26666;50.156;7.700;2023-03-23T09:48:24;0.30;;;0.10;;
40939;SDS011;26666;50.156;7.700;2023-03-23T09:53:34;0.13;;;0.00;;
40939;SDS011;26666;50.156;7.700;2023-03-23T09:58:45;0.50;;;0.00;;
40939;SDS011;26666;50.156;7.700;2023-03-23T10:03:52;0.35;;;0.00;;
40939;SDS011;26666;50.156;7.700;2023-03-23T10:09:01;0.08;;;0.00;;
40939;SDS011;26666;50.156;7.700;2023-03-23T10:14:07;1.67;;;0.00;;
40939;SDS011;26666;50.156;7.700;2023-03-23T10:19:17;0.00;;;0.00;;
40939;SDS011;26666;50.156;7.700;2023-03-23T10:24:28;0.65;;;0.00;;
40939;SDS011;26666;50.156;7.700;2023-03-23T10:29:35;0.10;;;0.00;;
40939;SDS011;26666;50.156;7.700;2023-03-23T10:34:40;0.10;;;0.10;;
40939;SDS011;26666;50.156;7.700;2023-03-23T10:39:48;0.30;;;0.10;;
40939;SDS011;26666;50.156;7.700;2023-03-23T10:44:50;0.30;;;0.20;;
40939;SDS011;26666;50.156;7.700;2023-03-23T10:49:51;0.85;;;0.28;;
40939;SDS011;26666;50.156;7.700;2023-03-23T10:54:58;0.10;;;0.10;;
40939;SDS011;26666;50.156;7.700;2023-03-23T11:00:04;0.32;;;0.00;;
40939;SDS011;26666;50.156;7.700;2023-03-23T11:05:13;0.35;;;0.35;;
40939;SDS011;26666;50.156;7.700;2023-03-23T11:10:20;0.00;;;0.00;;
40939;SDS011;26666;50.156;7.700;2023-03-23T11:15:30;0.00;;;0.00;;
40939;SDS011;26666;50.156;7.700;2023-03-23T11:20:33;0.17;;;0.00;;
40939;SDS011;26666;50.156;7.700;2023-03-23T11:25:51;0.32;;;0.00;;
40939;SDS011;26666;50.156;7.700;2023-03-23T11:30:55;0.00;;;0.00;;
40939;SDS011;26666;50.156;7.700;2023-03-23T11:35:57;1.30;;;0.00;;
40939;SDS011;26666;50.156;7.700;2023-03-23T11:40:59;1.02;;;0.00;;
40939;SDS011;26666;50.156;7.700;2023-03-23T11:46:02;0.00;;;0.00;;
40939;SDS011;26666;50.156;7.700;2023-03-23T11:51:08;0.00;;;0.00;;
40939;SDS011;26666;50.156;7.700;2023-03-23T11:56:17;0.15;;;0.00;;
40939;SDS011;26666;50.156;7.700;2023-03-23T12:01:32;0.00;;;0.00;;
40939;SDS011;26666;50.156;7.700;2023-03-23T12:06:45;1.85;;;0.00;;
40939;SDS011;26666;50.156;7.700;2023-03-23T12:12:03;0.00;;;0.00;;
40939;SDS011;26666;50.156;7.700;2023-03-23T12:17:15;0.00;;;0.00;;
40939;SDS011;26666;50.156;7.700;2023-03-23T12:22:24;0.20;;;0.15;;
40939;SDS011;26666;50.156;7.700;2023-03-23T12:27:40;0.10;;;0.10;;
40939;SDS011;26666;50.156;7.700;2023-03-23T12:32:51;0.95;;;0.10;;
40939;SDS011;26666;50.156;7.700;2023-03-23T12:38:10;0.00;;;0.00;;
40939;SDS011;26666;50.156;7.700;2023-03-23T12:43:25;1.92;;;0.10;;
40939;SDS011;26666;50.156;7.700;2023-03-23T12:48:32;0.00;;;0.00;;
40939;SDS011;26666;50.156;7.700;2023-03-23T12:53:40;0.08;;;0.00;;
40939;SDS011;26666;50.156;7.700;2023-03-23T12:58:50;0.00;;;0.00;;
40939;SDS011;26666;50.156;7.700;2023-03-23T13:03:56;0.00;;;0.00;;
40939;SDS011;26666;50.156;7.700;2023-03-23T13:09:00;0.00;;;0.00;;
40939;SDS011;26666;50.156;7.700;2023-03-23T13:14:10;0.00;;;0.00;;
40939;SDS011;26666;50.156;7.700;2023-03-23T13:19:17;0.10;;;0.00;;
40939;SDS011;26666;50.156;7.700;2023-03-23T13:24:24;1.55;;;0.10;;
40939;SDS011;26666;50.156;7.700;2023-03-23T13:29:31;0.00;;;0.00;;
40939;SDS011;26666;50.156;7.700;2023-03-23T13:34:34;0.00;;;0.00;;
40939;SDS011;26666;50.156;7.700;2023-03-23T13:39:36;0.00;;;0.00;;
40939;SDS011;26666;50.156;7.700;2023-03-23T13:50:25;1.95;;;0.00;;
40939;SDS011;26666;50.156;7.700;2023-03-23T13:55:38;2.63;;;0.00;;
40939;SDS011;26666;50.156;7.700;2023-03-23T14:00:46;0.00;;;0.00;;
40939;SDS011;26666;50.156;7.700;2023-03-23T14:05:48;0.52;;;0.10;;
40939;SDS011;26666;50.156;7.700;2023-03-23T14:10:53;0.10;;;0.00;;
40939;SDS011;26666;50.156;7.700;2023-03-23T14:15:58;0.10;;;0.00;;
40939;SDS011;26666;50.156;7.700;2023-03-23T14:21:00;0.40;;;0.10;;
40939;SDS011;26666;50.156;7.700;2023-03-23T14:26:02;0.20;;;0.10;;
40939;SDS011;26666;50.156;7.700;2023-03-23T14:31:14;1.10;;;0.17;;
40939;SDS011;26666;50.156;7.700;2023-03-23T14:36:21;4.53;;;0.30;;
40939;SDS011;26666;50.156;7.700;2023-03-23T14:41:23;1.10;;;1.00;;
40939;SDS011;26666;50.156;7.700;2023-03-23T14:46:25;0.85;;;0.10;;
40939;SDS011;26666;50.156;7.700;2023-03-23T14:51:26;0.10;;;0.10;;
40939;SDS011;26666;50.156;7.700;2023-03-23T14:56:32;0.98;;;0.10;;
40939;SDS011;26666;50.156;7.700;2023-03-23T15:01:39;1.50;;;0.25;;
40939;SDS011;26666;50.156;7.700;2023-03-23T15:06:45;5.57;;;0.10;;
40939;SDS011;26666;50.156;7.700;2023-03-23T15:11:51;1.58;;;0.50;;
40939;SDS011;26666;50.156;7.700;2023-03-23T15:16:56;1.02;;;0.10;;
40939;SDS011;26666;50.156;7.700;2023-03-23T15:22:03;1.65;;;0.47;;
40939;SDS011;26666;50.156;7.700;2023-03-23T15:27:11;0.00;;;0.00;;
40939;SDS011;26666;50.156;7.700;2023-03-23T15:32:20;3.72;;;0.10;;
40939;SDS011;26666;50.156;7.700;2023-03-23T15:37:24;6.10;;;0.38;;
40939;SDS011;26666;50.156;7.700;2023-03-23T15:42:27;0.80;;;0.32;;
40939;SDS011;26666;50.156;7.700;2023-03-23T15:47:36;1.25;;;0.10;;
40939;SDS011;26666;50.156;7.700;2023-03-23T15:52:43;2.05;;;0.10;;
40939;SDS011;26666;50.156;7.700;2023-03-23T15:59:30;3.65;;;0.73;;
40939;SDS011;26666;50.156;7.700;2023-03-23T16:03:47;0.13;;;0.10;;
40939;SDS011;26666;50.156;7.700;2023-03-23T16:08:51;1.08;;;0.13;;
40939;SDS011;26666;50.156;7.700;2023-03-23T16:13:57;2.85;;;0.32;;
40939;SDS011;26666;50.156;7.700;2023-03-23T16:19:09;2.55;;;0.10;;
40939;SDS011;26666;50.156;7.700;2023-03-23T16:24:31;2.53;;;0.30;;
40939;SDS011;26666;50.156;7.700;2023-03-23T16:29:51;0.63;;;0.10;;
40939;SDS011;26666;50.156;7.700;2023-03-23T16:35:06;0.43;;;0.28;;
40939;SDS011;26666;50.156;7.700;2023-03-23T16:40:09;3.03;;;0.10;;
40939;SDS011;26666;50.156;7.700;2023-03-23T16:45:13;4.43;;;0.20;;
40939;SDS011;26666;50.156;7.700;2023-03-23T16:50:17;1.70;;;0.15;;
40939;SDS011;26666;50.156;7.700;2023-03-23T16:55:22;0.95;;;0.10;;
40939;SDS011;26666;50.156;7.700;2023-03-23T17:00:24;0.37;;;0.20;;
40939;SDS011;26666;50.156;7.700;2023-03-23T17:05:27;0.75;;;0.10;;
40939;SDS011;26666;50.156;7.700;2023-03-23T17:10:30;0.13;;;0.13;;
40939;SDS011;26666;50.156;7.700;2023-03-23T17:15:32;2.65;;;0.32;;
40939;SDS011;26666;50.156;7.700;2023-03-23T17:20:38;1.63;;;0.20;;
40939;SDS011;26666;50.156;7.700;2023-03-23T17:25:40;1.27;;;0.57;;
40939;SDS011;26666;50.156;7.700;2023-03-23T17:30:42;0.47;;;0.10;;
40939;SDS011;26666;50.156;7.700;2023-03-23T17:35:46;3.80;;;0.10;;
40939;SDS011;26666;50.156;7.700;2023-03-23T17:40:56;0.55;;;0.10;;
40939;SDS011;26666;50.156;7.700;2023-03-23T17:45:58;0.30;;;0.30;;
40939;SDS011;26666;50.156;7.700;2023-03-23T17:51:01;0.20;;;0.10;;
40939;SDS011;26666;50.156;7.700;2023-03-23T17:56:04;1.17;;;0.15;;
40939;SDS011;26666;50.156;7.700;2023-03-23T18:01:06;2.95;;;0.52;;
40939;SDS011;26666;50.156;7.700;2023-03-23T18:06:10;0.65;;;0.30;;
40939;SDS011;26666;50.156;7.700;2023-03-23T18:11:12;8.75;;;0.38;;
40939;SDS011;26666;50.156;7.700;2023-03-23T18:16:14;1.23;;;0.20;;
40939;SDS011;26666;50.156;7.700;2023-03-23T18:21:17;2.92;;;0.50;;
40939;SDS011;26666;50.156;7.700;2023-03-23T18:26:19;1.88;;;0.30;;
40939;SDS011;26666;50.156;7.700;2023-03-23T18:31:22;3.03;;;0.20;;
40939;SDS011;26666;50.156;7.700;2023-03-23T18:36:25;1.08;;;0.20;;
40939;SDS011;26666;50.156;7.700;2023-03-23T18:41:28;5.00;;;0.60;;
40939;SDS011;26666;50.156;7.700;2023-03-23T18:46:29;10.68;;;0.70;;
40939;SDS011;26666;50.156;7.700;2023-03-23T18:51:32;4.15;;;0.85;;
40939;SDS011;26666;50.156;7.700;2023-03-23T18:56:34;3.88;;;0.95;;
40939;SDS011;26666;50.156;7.700;2023-03-23T19:01:36;1.40;;;0.52;;
40939;SDS011;26666;50.156;7.700;2023-03-23T19:06:39;1.92;;;1.10;;
40939;SDS011;26666;50.156;7.700;2023-03-23T19:11:41;5.15;;;0.50;;
40939;SDS011;26666;50.156;7.700;2023-03-23T19:16:43;0.40;;;0.40;;
40939;SDS011;26666;50.156;7.700;2023-03-23T19:21:46;1.45;;;0.60;;
40939;SDS011;26666;50.156;7.700;2023-03-23T19:26:48;2.33;;;0.43;;
40939;SDS011;26666;50.156;7.700;2023-03-23T19:31:50;7.45;;;0.98;;
40939;SDS011;26666;50.156;7.700;2023-03-23T19:36:53;0.73;;;0.20;;
40939;SDS011;26666;50.156;7.700;2023-03-23T19:42:06;1.05;;;0.30;;
40939;SDS011;26666;50.156;7.700;2023-03-23T19:47:08;0.45;;;0.28;;
40939;SDS011;26666;50.156;7.700;2023-03-23T19:52:12;0.98;;;0.60;;
40939;SDS011;26666;50.156;7.700;2023-03-23T19:57:16;3.72;;;0.70;;
40939;SDS011;26666;50.156;7.700;2023-03-23T20:02:18;0.28;;;0.20;;
40939;SDS011;26666;50.156;7.700;2023-03-23T20:07:21;1.42;;;0.38;;
40939;SDS011;26666;50.156;7.700;2023-03-23T20:12:27;0.35;;;0.35;;
40939;SDS011;26666;50.156;7.700;2023-03-23T20:17:28;0.20;;;0.17;;
40939;SDS011;26666;50.156;7.700;2023-03-23T20:22:32;1.40;;;0.40;;
40939;SDS011;26666;50.156;7.700;2023-03-23T20:27:34;2.28;;;0.32;;
40939;SDS011;26666;50.156;7.700;2023-03-23T20:32:38;1.15;;;0.47;;
40939;SDS011;26666;50.156;7.700;2023-03-23T20:37:42;5.32;;;0.30;;
40939;SDS011;26666;50.156;7.700;2023-03-23T20:42:44;7.22;;;0.35;;
40939;SDS011;26666;50.156;7.700;2023-03-23T20:47:45;0.60;;;0.25;;
40939;SDS011;26666;50.156;7.700;2023-03-23T20:52:48;1.48;;;0.40;;
40939;SDS011;26666;50.156;7.700;2023-03-23T20:57:50;0.88;;;0.32;;
40939;SDS011;26666;50.156;7.700;2023-03-23T21:02:52;1.15;;;0.15;;
40939;SDS011;26666;50.156;7.700;2023-03-23T21:07:55;0.82;;;0.30;;
40939;SDS011;26666;50.156;7.700;2023-03-23T21:12:56;0.68;;;0.40;;
40939;SDS011;26666;50.156;7.700;2023-03-23T21:17:58;0.77;;;0.30;;
40939;SDS011;26666;50.156;7.700;2023-03-23T21:23:02;0.77;;;0.50;;
40939;SDS011;26666;50.156;7.700;2023-03-23T21:28:04;2.35;;;0.40;;
40939;SDS011;26666;50.156;7.700;2023-03-23T21:33:06;1.17;;;0.30;;
40939;SDS011;26666;50.156;7.700;2023-03-23T21:38:11;2.58;;;0.50;;
40939;SDS011;26666;50.156;7.700;2023-03-23T21:43:13;3.30;;;0.38;;
40939;SDS011;26666;50.156;7.700;2023-03-23T21:48:15;0.57;;;0.10;;
40939;SDS011;26666;50.156;7.700;2023-03-23T21:53:18;1.95;;;0.50;;
40939;SDS011;26666;50.156;7.700;2023-03-23T21:58:21;0.47;;;0.47;;
40939;SDS011;26666;50.156;7.700;2023-03-23T22:03:24;2.13;;;0.30;;
40939;SDS011;26666;50.156;7.700;2023-03-23T22:08:27;2.47;;;0.45;;
40939;SDS011;26666;50.156;7.700;2023-03-23T22:13:30;3.97;;;0.50;;
40939;SDS011;26666;50.156;7.700;2023-03-23T22:18:34;2.95;;;0.70;;
40939;SDS011;26666;50.156;7.700;2023-03-23T22:23:37;2.42;;;0.93;;
40939;SDS011;26666;50.156;7.700;2023-03-23T22:28:40;2.30;;;0.60;;
40939;SDS011;26666;50.156;7.700;2023-03-23T22:33:43;0.88;;;0.30;;
40939;SDS011;26666;50.156;7.700;2023-03-23T22:38:47;0.50;;;0.45;;
40939;SDS011;26666;50.156;7.700;2023-03-23T22:43:49;1.83;;;0.65;;
40939;SDS011;26666;50.156;7.700;2023-03-23T22:48:51;2.60;;;0.93;;
40939;SDS011;26666;50.156;7.700;2023-03-23T22:53:54;1.80;;;0.60;;
40939;SDS011;26666;50.156;7.700;2023-03-23T22:58:57;1.70;;;0.57;;
40939;SDS011;26666;50.156;7.700;2023-03-23T23:03:59;1.60;;;0.50;;
40939;SDS011;26666;50.156;7.700;2023-03-23T23:09:02;1.38;;;0.65;;
40939;SDS011;26666;50.156;7.700;2023-03-23T23:14:05;2.67;;;1.17;;
40939;SDS011;26666;50.156;7.700;2023-03-23T23:19:07;2.05;;;0.80;;
40939;SDS011;26666;50.156;7.700;2023-03-23T23:24:10;1.40;;;1.02;;
40939;SDS011;26666;50.156;7.700;2023-03-23T23:29:12;3.22;;;0.70;;
40939;SDS011;26666;50.156;7.700;2023-03-23T23:34:13;0.93;;;0.70;;
40939;SDS011;26666;50.156;7.700;2023-03-23T23:39:17;2.45;;;1.10;;
40939;SDS011;26666;50.156;7.700;2023-03-23T23:44:18;1.60;;;0.73;;
40939;SDS011;26666;50.156;7.700;2023-03-23T23:49:20;1.75;;;1.23;;
40939;SDS011;26666;50.156;7.700;2023-03-23T23:54:23;3.75;;;1.13;;
40939;SDS011;26666;50.156;7.700;2023-03-23T23:59:25;1.80;;;1.08;;
